SondeTracker

Meteorological Radiosondes Database

Operations

Sounding was ended - last measurement: 2022-12-06 13:23:19z

MAP
About Radiosonde

Number: D22032173 ([BC]22032173)

Launch Site: Charleston [SC] (US)

Type: DFM

AUX: NO

Frequency: MHz

Max Speed: 189 km/h at 32575 m

Average Speed: 91.99 km/h

Max Altitude: 32875 m

Average Ascent Speed: 5.37 m/s

Average Descent Speed: 10.46 m/s

Status: LOST

Status Changes
Launch Site Type AUX Frequency Status Finder Landing Point Description Changes made by
MHz LOST 0, 0 AUTO STATUS: Probably lost in the water [BOT]AUTO-STATUS - 2022-12-06 14:31:13z
APRS Statistics

Received Frames: 384

First Frame [UTC]: 2022-12-06 11:11:44z

Last Frame [UTC]: 2022-12-06 13:23:19z

Receivers: W4DEX-14

Flight Time: 02:11:35 h

Distance From First Measurement: 168.34 km

Nearest City: [0.00 km]

Nearest Hunter: [0.00 km]

Ground Altitude: -123 m

Distance from QTH: 0.00 km

APRS Data
Receiver Number Date/Time [UTC] φ λ Course [°] Speed [km/h] Altitude [m] Description
W4DEX-14D220321732022-12-06 13:23:1932.4101-78.2943121397017Clb=-6.8m/s Type=DFM17 ser=[BC]22032173 Details on http://radiosondy.info
W4DEX-14D220321732022-12-06 13:22:5532.411-78.2962121397134Clb=-6.9m/s Type=DFM17 ser=[BC]22032173 Details on http://radiosondy.info
W4DEX-14D220321732022-12-06 13:22:3632.4117-78.2977119437223Clb=-7.1m/s Type=DFM Details on http://radiosondy.info
W4DEX-14D220321732022-12-06 13:22:0932.4126-78.2999114507362Clb=-7.3m/s Type=DFM17 ser=[BC]22032173 Details on http://radiosondy.info
W4DEX-14D220321732022-12-06 13:21:5032.4134-78.3019113527469Clb=-6.9m/s Type=DFM17 ser=[BC]22032173 Details on http://radiosondy.info
W4DEX-14D220321732022-12-06 13:21:3432.4142-78.304114597576Clb=-6.9m/s Type=DFM17 ser=[BC]22032173 Details on http://radiosondy.info
W4DEX-14D220321732022-12-06 13:21:1632.4151-78.3064115637682Clb=-7.0m/s Type=DFM17 ser=[BC]22032173 Details on http://radiosondy.info
W4DEX-14D220321732022-12-06 13:20:5732.416-78.309112617788Clb=-6.9m/s Type=DFM17 ser=[BC]22032173 Details on http://radiosondy.info
W4DEX-14D220321732022-12-06 13:20:4032.4169-78.3115114617896Clb=-7.0m/s Type=DFM17 ser=[BC]22032173 Details on http://radiosondy.info
W4DEX-14D220321732022-12-06 13:20:1732.4178-78.314114598004Clb=-7.3m/s Type=DFM17 ser=[BC]22032173 Details on http://radiosondy.info
W4DEX-14D220321732022-12-06 13:19:5232.4186-78.3164109568114Clb=-7.1m/s Type=DFM17 ser=[BC]22032173 Details on http://radiosondy.info
W4DEX-14D220321732022-12-06 13:19:3232.4193-78.3187112578224Clb=-7.0m/s Type=DFM17 ser=[BC]22032173 Details on http://radiosondy.info
W4DEX-14D220321732022-12-06 13:19:1132.4201-78.321114578335Clb=-7.3m/s Type=DFM17 ser=[BC]22032173 Details on http://radiosondy.info
W4DEX-14D220321732022-12-06 13:18:5032.421-78.3234117658446Clb=-7.6m/s Type=DFM17 ser=[BC]22032173 Details on http://radiosondy.info
W4DEX-14D220321732022-12-06 13:18:3432.4221-78.3259120698558Clb=-7.3m/s Type=DFM17 ser=[BC]22032173 Details on http://radiosondy.info
W4DEX-14D220321732022-12-06 13:18:1432.4234-78.3286122728671Clb=-7.5m/s Type=DFM17 ser=[BC]22032173 Details on http://radiosondy.info
W4DEX-14D220321732022-12-06 13:17:5532.4248-78.3312124768786Clb=-7.8m/s Type=DFM17 ser=[BC]22032173 Details on http://radiosondy.info
W4DEX-14D220321732022-12-06 13:17:3132.4265-78.334127808900Clb=-7.3m/s Type=DFM17 ser=[BC]22032173 Details on http://radiosondy.info
W4DEX-14D220321732022-12-06 13:17:0932.4284-78.3366134839014Clb=-7.4m/s Type=DFM17 ser=[BC]22032173 Details on http://radiosondy.info
W4DEX-14D220321732022-12-06 13:16:4832.4306-78.3393133899130Clb=-7.9m/s Type=DFM17 ser=[BC]22032173 Details on http://radiosondy.info
W4DEX-14D220321732022-12-06 13:16:3032.4329-78.3422134879247Clb=-7.6m/s Type=DFM17 ser=[BC]22032173 Details on http://radiosondy.info
W4DEX-14D220321732022-12-06 13:16:1232.4352-78.3449138839364Clb=-7.8m/s Type=DFM17 ser=[BC]22032173 Details on http://radiosondy.info
W4DEX-14D220321732022-12-06 13:15:5332.4375-78.3474138819483Clb=-7.7m/s Type=DFM17 ser=[BC]22032173 Details on http://radiosondy.info
W4DEX-14D220321732022-12-06 13:15:3232.4398-78.3499136819600Clb=-7.5m/s Type=DFM17 ser=[BC]22032173 Details on http://radiosondy.info
W4DEX-14D220321732022-12-06 13:15:1032.442-78.3524137819719Clb=-7.9m/s Type=DFM17 ser=[BC]22032173 Details on http://radiosondy.info
W4DEX-14D220321732022-12-06 13:14:4932.4443-78.3548137839835Clb=-8.0m/s Type=DFM17 ser=[BC]22032173 Details on http://radiosondy.info
W4DEX-14D220321732022-12-06 13:14:2932.4465-78.3574136879954Clb=-8.5m/s Type=DFM17 ser=[BC]22032173 Details on http://radiosondy.info
W4DEX-14D220321732022-12-06 13:14:1132.4488-78.36021339110078Clb=-8.3m/s Type=DFM17 ser=[BC]22032173 Details on http://radiosondy.info
W4DEX-14D220321732022-12-06 13:13:5132.4511-78.36311319410203Clb=-8.4m/s Type=DFM17 ser=[BC]22032173 Details on http://radiosondy.info
W4DEX-14D220321732022-12-06 13:13:2832.4534-78.36631319610331Clb=-8.3m/s Type=DFM17 ser=[BC]22032173 Details on http://radiosondy.info
W4DEX-14D220321732022-12-06 13:13:0632.4557-78.369613110010459Clb=-8.3m/s Type=DFM17 ser=[BC]22032173 Details on http://radiosondy.info
W4DEX-14D220321732022-12-06 13:12:4332.4582-78.37313110910589Clb=-8.2m/s Type=DFM17 ser=[BC]22032173 Details on http://radiosondy.info
W4DEX-14D220321732022-12-06 13:12:2232.4608-78.376713011110719Clb=-8.8m/s Type=DFM17 ser=[BC]22032173 Details on http://radiosondy.info
W4DEX-14D220321732022-12-06 13:12:0432.4635-78.380512911310851Clb=-8.6m/s Type=DFM17 ser=[BC]22032173 Details on http://radiosondy.info
W4DEX-14D220321732022-12-06 13:12:0132.4661-78.384412811310984Clb=-8.6m/s Type=DFM17 ser=[BC]22032173 Details on http://radiosondy.info
W4DEX-14D220321732022-12-06 13:11:5732.4685-78.388512511911116Clb=-9.2m/s Type=DFM17 ser=[BC]22032173 Details on http://radiosondy.info
W4DEX-14D220321732022-12-06 13:11:5432.471-78.392912312411250Clb=-9.0m/s Type=DFM17 ser=[BC]22032173 Details on http://radiosondy.info
W4DEX-14D220321732022-12-06 13:11:5032.4735-78.397512412611382Clb=-9.1m/s Type=DFM17 ser=[BC]22032173 Details on http://radiosondy.info
W4DEX-14D220321732022-12-06 13:11:4832.476-78.402212212411514Clb=-8.5m/s Type=DFM17 ser=[BC]22032173 Details on http://radiosondy.info
W4DEX-14D220321732022-12-06 13:11:4432.4784-78.40712212411645Clb=-8.8m/s Type=DFM17 ser=[BC]22032173 Details on http://radiosondy.info
W4DEX-14D220321732022-12-06 13:11:3932.4809-78.411612312211776Clb=-8.8m/s Type=DFM17 ser=[BC]22032173 Details on http://radiosondy.info
W4DEX-14D220321732022-12-06 13:11:3832.4859-78.420812313012035Clb=-8.3m/s Type=DFM17 ser=[BC]22032173 Details on http://radiosondy.info
W4DEX-14D220321732022-12-06 13:11:3732.4885-78.425612213312162Clb=-8.5m/s Type=DFM17 ser=[BC]22032173 Details on http://radiosondy.info
W4DEX-14D220321732022-12-06 13:11:3232.4911-78.430712313512289Clb=-8.3m/s Type=DFM17 ser=[BC]22032173 Details on http://radiosondy.info
W4DEX-14D220321732022-12-06 13:11:2332.4938-78.435812213712416Clb=-7.9m/s Type=DFM17 ser=[BC]22032173 Details on http://radiosondy.info
W4DEX-14D220321732022-12-06 13:11:1032.4965-78.44112213712540Clb=-8.3m/s Type=DFM17 ser=[BC]22032173 Details on http://radiosondy.info
W4DEX-14D220321732022-12-06 13:10:4732.4992-78.446112113312665Clb=-8.1m/s Type=DFM17 ser=[BC]22032173 Details on http://radiosondy.info
W4DEX-14D220321732022-12-06 13:10:2632.5018-78.451212013512789Clb=-8.3m/s Type=DFM17 ser=[BC]22032173 Details on http://radiosondy.info
W4DEX-14D220321732022-12-06 13:09:5832.5043-78.456412013912914Clb=-8.2m/s Type=DFM17 ser=[BC]22032173 Details on http://radiosondy.info
W4DEX-14D220321732022-12-06 13:09:3332.5068-78.461812014313040Clb=-8.7m/s Type=DFM17 ser=[BC]22032173 Details on http://radiosondy.info
W4DEX-14D220321732022-12-06 13:09:0532.5095-78.467212114613171Clb=-8.7m/s Type=DFM17 ser=[BC]22032173 Details on http://radiosondy.info
W4DEX-14D220321732022-12-06 13:08:4032.5123-78.472812114413305Clb=-8.8m/s Type=DFM17 ser=[BC]22032173 Details on http://radiosondy.info
W4DEX-14D220321732022-12-06 13:08:1432.5151-78.478212414413439Clb=-9.3m/s Type=DFM17 ser=[BC]22032173 Details on http://radiosondy.info
W4DEX-14D220321732022-12-06 13:07:4432.5182-78.483612313913579Clb=-9.3m/s Type=DFM17 ser=[BC]22032173 Details on http://radiosondy.info
W4DEX-14D220321732022-12-06 13:07:1532.5209-78.488812213113720Clb=-9.4m/s Type=DFM17 ser=[BC]22032173 Details on http://radiosondy.info
W4DEX-14D220321732022-12-06 13:06:5032.5235-78.493712212413864Clb=-9.5m/s Type=DFM17 ser=[BC]22032173 Details on http://radiosondy.info
W4DEX-14D220321732022-12-06 13:06:2932.5258-78.498412012014013Clb=-10.2m/s Type=DFM17 ser=[BC]22032173 Details on http://radiosondy.info
W4DEX-14D220321732022-12-06 13:06:0932.528-78.503111812614164Clb=-10.0m/s Type=DFM17 ser=[BC]22032173 Details on http://radiosondy.info
W4DEX-14D220321732022-12-06 13:05:4432.5302-78.508112013014316Clb=-9.8m/s Type=DFM17 ser=[BC]22032173 Details on http://radiosondy.info
W4DEX-14D220321732022-12-06 13:05:2132.5328-78.512912313114464Clb=-9.9m/s Type=DFM17 ser=[BC]22032173 Details on http://radiosondy.info
W4DEX-14D220321732022-12-06 13:04:5832.5356-78.517712912014613Clb=-10.0m/s Type=DFM17 ser=[BC]22032173 Details on http://radiosondy.info
W4DEX-14D220321732022-12-06 13:04:3432.5385-78.521713110214765Clb=-10.0m/s Type=DFM17 ser=[BC]22032173 Details on http://radiosondy.info
W4DEX-14D220321732022-12-06 13:04:0632.5409-78.52521268714917Clb=-10.0m/s Type=DFM17 ser=[BC]22032173 Details on http://radiosondy.info
W4DEX-14D220321732022-12-06 13:03:3832.5426-78.52851187615072Clb=-10.0m/s Type=DFM17 ser=[BC]22032173 Details on http://radiosondy.info
W4DEX-14D220321732022-12-06 13:03:1432.5438-78.53151166915224Clb=-10.1m/s Type=DFM17 ser=[BC]22032173 Details on http://radiosondy.info
W4DEX-14D220321732022-12-06 13:02:5432.5449-78.53431137015377Clb=-10.2m/s Type=DFM17 ser=[BC]22032173 Details on http://radiosondy.info
W4DEX-14D220321732022-12-06 13:02:3232.5458-78.53721097615537Clb=-10.8m/s Type=DFM17 ser=[BC]22032173 Details on http://radiosondy.info
W4DEX-14D220321732022-12-06 13:02:0632.5466-78.54041058515703Clb=-10.7m/s Type=DFM17 ser=[BC]22032173 Details on http://radiosondy.info
W4DEX-14D220321732022-12-06 13:01:4432.5476-78.5441129815865Clb=-10.6m/s Type=DFM17 ser=[BC]22032173 Details on http://radiosondy.info
W4DEX-14D220321732022-12-06 13:01:2132.5491-78.547911910716029Clb=-10.6m/s Type=DFM17 ser=[BC]22032173 Details on http://radiosondy.info
W4DEX-14D220321732022-12-06 13:00:5132.5511-78.55212010916193Clb=-11.0m/s Type=DFM17 ser=[BC]22032173 Details on http://radiosondy.info
W4DEX-14D220321732022-12-06 13:00:2632.5532-78.556112210016357Clb=-10.8m/s Type=DFM17 ser=[BC]22032173 Details on http://radiosondy.info
W4DEX-14D220321732022-12-06 12:59:5032.5552-78.55981249116521Clb=-11.6m/s Type=DFM17 ser=[BC]22032173 Details on http://radiosondy.info
W4DEX-14D220321732022-12-06 12:59:2132.5571-78.56311268316697Clb=-12.1m/s Type=DFM17 ser=[BC]22032173 Details on http://radiosondy.info
W4DEX-14D220321732022-12-06 12:58:4932.5587-78.56631158016874Clb=-11.7m/s Type=DFM17 ser=[BC]22032173 Details on http://radiosondy.info
W4DEX-14D220321732022-12-06 12:58:1932.5597-78.56961118117058Clb=-12.0m/s Type=DFM17 ser=[BC]22032173 Details on http://radiosondy.info
W4DEX-14D220321732022-12-06 12:57:4432.5609-78.57291177817238Clb=-11.8m/s Type=DFM17 ser=[BC]22032173 Details on http://radiosondy.info
W4DEX-14D220321732022-12-06 12:57:1632.562-78.57621058117427Clb=-12.1m/s Type=DFM17 ser=[BC]22032173 Details on http://radiosondy.info
W4DEX-14D220321732022-12-06 12:56:4832.5625-78.5798978717619Clb=-12.7m/s Type=DFM17 ser=[BC]22032173 Details on http://radiosondy.info
W4DEX-14D220321732022-12-06 12:56:2432.5627-78.58369910217813Clb=-13.6m/s Type=DFM17 ser=[BC]22032173 Details on http://radiosondy.info
W4DEX-14D220321732022-12-06 12:55:5832.5634-78.588110211918021Clb=-13.8m/s Type=DFM17 ser=[BC]22032173 Details on http://radiosondy.info
W4DEX-14D220321732022-12-06 12:55:3132.5644-78.593311012018230Clb=-13.6m/s Type=DFM17 ser=[BC]22032173 Details on http://radiosondy.info
W4DEX-14D220321732022-12-06 12:54:5932.5661-78.59821209818440Clb=-13.4m/s Type=DFM17 ser=[BC]22032173 Details on http://radiosondy.info
W4DEX-14D220321732022-12-06 12:54:3432.5681-78.60171307218642Clb=-13.5m/s Type=DFM17 ser=[BC]22032173 Details on http://radiosondy.info
W4DEX-14D220321732022-12-06 12:54:1032.57-78.6041325718845Clb=-14.2m/s Type=DFM17 ser=[BC]22032173 Details on http://radiosondy.info
W4DEX-14D220321732022-12-06 12:53:4332.5712-78.60611085219054Clb=-13.2m/s Type=DFM17 ser=[BC]22032173 Details on http://radiosondy.info
W4DEX-14D220321732022-12-06 12:53:1632.5719-78.60821095419259Clb=-13.8m/s Type=DFM17 ser=[BC]22032173 Details on http://radiosondy.info
W4DEX-14D220321732022-12-06 12:52:5132.5722-78.61061025919472Clb=-14.2m/s Type=DFM17 ser=[BC]22032173 Details on http://radiosondy.info
W4DEX-14D220321732022-12-06 12:52:1932.5733-78.61281264619683Clb=-14.5m/s Type=DFM17 ser=[BC]22032173 Details on http://radiosondy.info
W4DEX-14D220321732022-12-06 12:51:4632.5742-78.61461124619901Clb=-14.8m/s Type=DFM17 ser=[BC]22032173 Details on http://radiosondy.info
W4DEX-14D220321732022-12-06 12:51:1632.575-78.61641183020128Clb=-15.6m/s Type=DFM17 ser=[BC]22032173 Details on http://radiosondy.info
W4DEX-14D220321732022-12-06 12:50:5132.5755-78.6176953520399Clb=-16.2m/s Type=DFM17 ser=[BC]22032173 Details on http://radiosondy.info
W4DEX-14D220321732022-12-06 12:50:1932.5758-78.61911113320699Clb=-22.5m/s Type=DFM17 ser=[BC]22032173 Details on http://radiosondy.info
W4DEX-14D220321732022-12-06 12:49:4932.5761-78.6206963521069Clb=-22.5m/s Type=DFM17 ser=[BC]22032173 Details on http://radiosondy.info
W4DEX-14D220321732022-12-06 12:49:1832.5764-78.6221973721416Clb=-22.6m/s Type=DFM17 ser=[BC]22032173 Details on http://radiosondy.info
W4DEX-14D220321732022-12-06 12:48:4732.5763-78.6238934121780Clb=-23.8m/s Type=DFM17 ser=[BC]22032173 Details on http://radiosondy.info
W4DEX-14D220321732022-12-06 12:48:1532.5766-78.62551113522155Clb=-22.8m/s Type=DFM17 ser=[BC]22032173 Details on http://radiosondy.info
W4DEX-14D220321732022-12-06 12:47:4332.5771-78.62691213122522Clb=-23.2m/s Type=DFM17 ser=[BC]22032173 Details on http://radiosondy.info
W4DEX-14D220321732022-12-06 12:47:1132.5774-78.6283982622922Clb=-28.6m/s Type=DFM17 ser=[BC]22032173 Details on http://radiosondy.info
W4DEX-14D220321732022-12-06 12:46:4532.5775-78.62941044123362Clb=-25.8m/s Type=DFM17 ser=[BC]22032173 Details on http://radiosondy.info
W4DEX-14D220321732022-12-06 12:46:1832.5774-78.6311715423790Clb=-31.5m/s Type=DFM17 ser=[BC]22032173 Details on http://radiosondy.info
W4DEX-14D220321732022-12-06 12:45:4832.5772-78.6335785924253Clb=-27.5m/s Type=DFM17 ser=[BC]22032173 Details on http://radiosondy.info
W4DEX-14D220321732022-12-06 12:45:1632.5771-78.6361906924735Clb=-30.4m/s Type=DFM17 ser=[BC]22032173 Details on http://radiosondy.info
W4DEX-14D220321732022-12-06 12:44:4432.5772-78.6391878525234Clb=-31.2m/s Type=DFM17 ser=[BC]22032173 Details on http://radiosondy.info
W4DEX-14D220321732022-12-06 12:44:1432.5771-78.6428949125702Clb=-29.0m/s Type=DFM17 ser=[BC]22032173 Details on http://radiosondy.info
W4DEX-14D220321732022-12-06 12:43:5932.5768-78.6468919326148Clb=-31.8m/s Type=DFM17 ser=[BC]22032173 Details on http://radiosondy.info
W4DEX-14D220321732022-12-06 12:43:5432.5767-78.651849426617Clb=-31.5m/s Type=DFM17 ser=[BC]22032173 Details on http://radiosondy.info
W4DEX-14D220321732022-12-06 12:43:5132.5761-78.65517310727127Clb=-42.9m/s Type=DFM17 ser=[BC]22032173 Details on http://radiosondy.info
W4DEX-14D220321732022-12-06 12:43:5032.5751-78.65988011527741Clb=-35.3m/s Type=DFM17 ser=[BC]22032173 Details on http://radiosondy.info
W4DEX-14D220321732022-12-06 12:43:4932.5746-78.66488211128326Clb=-40.2m/s Type=DFM17 ser=[BC]22032173 Details on http://radiosondy.info
W4DEX-14D220321732022-12-06 12:43:4632.5741-78.66978310928985Clb=-41.8m/s Type=DFM17 ser=[BC]22032173 Details on http://radiosondy.info
W4DEX-14D220321732022-12-06 12:43:4132.5739-78.67458811129658Clb=-41.4m/s Type=DFM17 ser=[BC]22032173 Details on http://radiosondy.info
W4DEX-14D220321732022-12-06 12:43:3232.574-78.67949812030232Clb=-30.9m/s Type=DFM17 ser=[BC]22032173 Details on http://radiosondy.info
W4DEX-14D220321732022-12-06 12:43:2332.5747-78.68479914630802Clb=-49.7m/s Type=DFM17 ser=[BC]22032173 Details on http://radiosondy.info
W4DEX-14D220321732022-12-06 12:43:1432.5753-78.69129715931407Clb=-36.6m/s Type=DFM17 ser=[BC]22032173 Details on http://radiosondy.info
W4DEX-14D220321732022-12-06 12:42:5932.5756-78.69819018132150Clb=-54.4m/s Type=DFM17 ser=[BC]22032173 Details on http://radiosondy.info
W4DEX-14D220321732022-12-06 12:42:3432.5755-78.70629618732812Clb=-46.0m/s Type=DFM17 ser=[BC]22032173 Details on http://radiosondy.info
W4DEX-14D220321732022-12-06 12:42:0732.5755-78.71448018032875Clb=6.1m/s Type=DFM17 ser=[BC]22032173 Details on http://radiosondy.info
W4DEX-14D220321732022-12-06 12:42:0032.5752-78.72239618932776Clb=6.6m/s Type=DFM17 ser=[BC]22032173 Details on http://radiosondy.info
W4DEX-14D220321732022-12-06 12:41:5732.575-78.73078318132677Clb=6.8m/s Type=DFM17 ser=[BC]22032173 Details on http://radiosondy.info
W4DEX-14D220321732022-12-06 12:41:5632.5748-78.738510218932575Clb=7.7m/s Type=DFM17 ser=[BC]22032173 Details on http://radiosondy.info
W4DEX-14D220321732022-12-06 12:41:5332.5748-78.74688417632464Clb=6.3m/s Type=DFM17 ser=[BC]22032173 Details on http://radiosondy.info
W4DEX-14D220321732022-12-06 12:41:5232.5744-78.75458117232357Clb=7.9m/s Type=DFM17 ser=[BC]22032173 Details on http://radiosondy.info
W4DEX-14D220321732022-12-06 12:41:5132.5745-78.76218316732245Clb=11.1m/s Type=DFM17 ser=[BC]22032173 Details on http://radiosondy.info
W4DEX-14D220321732022-12-06 12:41:5032.5744-78.76938916132143Clb=-0.3m/s Type=DFM17 ser=[BC]22032173 Details on http://radiosondy.info
W4DEX-14D220321732022-12-06 12:41:4932.5742-78.77629416532034Clb=9.4m/s Type=DFM17 ser=[BC]22032173 Details on http://radiosondy.info
W4DEX-14D220321732022-12-06 12:41:4832.5742-78.78337115231934Clb=2.9m/s Type=DFM17 ser=[BC]22032173 Details on http://radiosondy.info
W4DEX-14D220321732022-12-06 12:41:4632.574-78.796715231830Clb=4.0m/s Type=DFM17 ser=[BC]22032173 Details on http://radiosondy.info
W4DEX-14D220321732022-12-06 12:41:4532.574-78.79648314431725Clb=10.1m/s Type=DFM17 ser=[BC]22032173 Details on http://radiosondy.info
W4DEX-14D220321732022-12-06 12:41:4032.5745-78.80278514331626Clb=9.1m/s Type=DFM17 ser=[BC]22032173 Details on http://radiosondy.info
W4DEX-14D220321732022-12-06 12:41:2232.5751-78.80898914131529Clb=0.7m/s Type=DFM17 ser=[BC]22032173 Details on http://radiosondy.info
W4DEX-14D220321732022-12-06 12:41:0432.5757-78.81638413131420Clb=7.0m/s Type=DFM17 ser=[BC]22032173 Details on http://radiosondy.info
W4DEX-14D220321732022-12-06 12:40:3732.5762-78.82228814331325Clb=1.5m/s Type=DFM17 ser=[BC]22032173 Details on http://radiosondy.info
W4DEX-14D220321732022-12-06 12:40:0832.5763-78.82839814131234Clb=3.2m/s Type=DFM17 ser=[BC]22032173 Details on http://radiosondy.info
W4DEX-14D220321732022-12-06 12:39:3832.5764-78.834411014131148Clb=8.3m/s Type=DFM17 ser=[BC]22032173 Details on http://radiosondy.info
W4DEX-14D220321732022-12-06 12:39:0332.5767-78.840410813931049Clb=8.1m/s Type=DFM17 ser=[BC]22032173 Details on http://radiosondy.info
W4DEX-14D220321732022-12-06 12:38:2932.577-78.846810313530966Clb=5.0m/s Type=DFM17 ser=[BC]22032173 Details on http://radiosondy.info
W4DEX-14D220321732022-12-06 12:37:4932.5774-78.8539413130864Clb=7.7m/s Type=DFM17 ser=[BC]22032173 Details on http://radiosondy.info
W4DEX-14D220321732022-12-06 12:37:1632.5779-78.85869713030762Clb=8.1m/s Type=DFM17 ser=[BC]22032173 Details on http://radiosondy.info
W4DEX-14D220321732022-12-06 12:36:3932.5784-78.86479712830680Clb=9.1m/s Type=DFM17 ser=[BC]22032173 Details on http://radiosondy.info
W4DEX-14D220321732022-12-06 12:36:0332.5791-78.87069512230588Clb=8.5m/s Type=DFM17 ser=[BC]22032173 Details on http://radiosondy.info
W4DEX-14D220321732022-12-06 12:35:2832.5796-78.87598311730497Clb=5.4m/s Type=DFM17 ser=[BC]22032173 Details on http://radiosondy.info
W4DEX-14D220321732022-12-06 12:34:4632.5801-78.88088111330408Clb=0.8m/s Type=DFM17 ser=[BC]22032173 Details on http://radiosondy.info
W4DEX-14D220321732022-12-06 12:34:0632.5805-78.88529211130329Clb=8.1m/s Type=DFM17 ser=[BC]22032173 Details on http://radiosondy.info
W4DEX-14D220321732022-12-06 12:33:3032.5807-78.88997111930234Clb=11.3m/s Type=DFM17 ser=[BC]22032173 Details on http://radiosondy.info
W4DEX-14D220321732022-12-06 12:32:4432.5658-79.0859979326210Clb=6.3m/s Type=DFM17 ser=[BC]22032173 Details on http://radiosondy.info
W4DEX-14D220321732022-12-06 12:32:0332.5655-79.09929426124Clb=8.6m/s Type=DFM17 ser=[BC]22032173 Details on http://radiosondy.info
W4DEX-14D220321732022-12-06 12:31:2532.5647-79.094899826035Clb=9.6m/s Type=DFM17 ser=[BC]22032173 Details on http://radiosondy.info
W4DEX-14D220321732022-12-06 12:30:5432.5641-79.098999325945Clb=9.3m/s Type=DFM17 ser=[BC]22032173 Details on http://radiosondy.info
W4DEX-14D220321732022-12-06 12:30:1732.5639-79.10191019125863Clb=5.8m/s Type=DFM17 ser=[BC]22032173 Details on http://radiosondy.info
W4DEX-14D220321732022-12-06 12:29:4132.5638-79.10591019125780Clb=4.7m/s Type=DFM17 ser=[BC]22032173 Details on http://radiosondy.info
W4DEX-14D220321732022-12-06 12:29:0532.5639-79.1099978925705Clb=3.8m/s Type=DFM17 ser=[BC]22032173 Details on http://radiosondy.info
W4DEX-14D220321732022-12-06 12:28:3232.5635-79.1137928525631Clb=2.4m/s Type=DFM17 ser=[BC]22032173 Details on http://radiosondy.info
W4DEX-14D220321732022-12-06 12:27:5732.5631-79.1173918725553Clb=2.7m/s Type=DFM17 ser=[BC]22032173 Details on http://radiosondy.info
W4DEX-14D220321732022-12-06 12:27:2532.5622-79.121858025476Clb=3.3m/s Type=DFM17 ser=[BC]22032173 Details on http://radiosondy.info
W4DEX-14D220321732022-12-06 12:26:5332.5614-79.1243906925398Clb=3.6m/s Type=DFM17 ser=[BC]22032173 Details on http://radiosondy.info
W4DEX-14D220321732022-12-06 12:26:2532.5611-79.1273936325316Clb=7.9m/s Type=DFM17 ser=[BC]22032173 Details on http://radiosondy.info
W4DEX-14D220321732022-12-06 12:25:4832.5611-79.1299896525212Clb=0.2m/s Type=DFM17 ser=[BC]22032173 Details on http://radiosondy.info
W4DEX-14D220321732022-12-06 12:25:1932.5606-79.1327776925130Clb=10.2m/s Type=DFM17 ser=[BC]22032173 Details on http://radiosondy.info
W4DEX-14D220321732022-12-06 12:24:3432.5599-79.1356685725023Clb=8.2m/s Type=DFM17 ser=[BC]22032173 Details on http://radiosondy.info
W4DEX-14D220321732022-12-06 12:23:5532.5597-79.13811085624913Clb=4.3m/s Type=DFM17 ser=[BC]22032173 Details on http://radiosondy.info
W4DEX-14D220321732022-12-06 12:23:2232.5599-79.14041065424804Clb=2.0m/s Type=DFM17 ser=[BC]22032173 Details on http://radiosondy.info
W4DEX-14D220321732022-12-06 12:22:4432.5599-79.1428905624693Clb=3.6m/s Type=DFM17 ser=[BC]22032173 Details on http://radiosondy.info
W4DEX-14D220321732022-12-06 12:22:0732.5595-79.1452865624587Clb=8.3m/s Type=DFM17 ser=[BC]22032173 Details on http://radiosondy.info
W4DEX-14D220321732022-12-06 12:21:3132.5594-79.1476925224476Clb=10.3m/s Type=DFM17 ser=[BC]22032173 Details on http://radiosondy.info
W4DEX-14D220321732022-12-06 12:20:5032.5595-79.1499965024371Clb=7.5m/s Type=DFM17 ser=[BC]22032173 Details on http://radiosondy.info
W4DEX-14D220321732022-12-06 12:20:0032.5595-79.1521985024272Clb=5.0m/s Type=DFM17 ser=[BC]22032173 Details on http://radiosondy.info
W4DEX-14D220321732022-12-06 12:19:0332.5592-79.1543984824175Clb=3.9m/s Type=DFM17 ser=[BC]22032173 Details on http://radiosondy.info
W4DEX-14D220321732022-12-06 12:18:2332.5589-79.1565784424080Clb=9.3m/s Type=DFM17 ser=[BC]22032173 Details on http://radiosondy.info
W4DEX-14D220321732022-12-06 12:17:5032.5589-79.15821224823986Clb=6.1m/s Type=DFM17 ser=[BC]22032173 Details on http://radiosondy.info
W4DEX-14D220321732022-12-06 12:17:1732.559-79.16031115423897Clb=1.0m/s Type=DFM17 ser=[BC]22032173 Details on http://radiosondy.info
W4DEX-14D220321732022-12-06 12:16:4932.5591-79.16261175223808Clb=2.7m/s Type=DFM17 ser=[BC]22032173 Details on http://radiosondy.info
W4DEX-14D220321732022-12-06 12:16:1032.5591-79.16471224623722Clb=4.2m/s Type=DFM17 ser=[BC]22032173 Details on http://radiosondy.info
W4DEX-14D220321732022-12-06 12:15:5932.5589-79.1667824423640Clb=8.2m/s Type=DFM17 ser=[BC]22032173 Details on http://radiosondy.info
W4DEX-14D220321732022-12-06 12:15:5832.5586-79.1685805023553Clb=6.5m/s Type=DFM17 ser=[BC]22032173 Details on http://radiosondy.info
W4DEX-14D220321732022-12-06 12:15:5732.5587-79.1707795423474Clb=3.4m/s Type=DFM17 ser=[BC]22032173 Details on http://radiosondy.info
W4DEX-14D220321732022-12-06 12:15:5532.5592-79.1728984823392Clb=6.2m/s Type=DFM17 ser=[BC]22032173 Details on http://radiosondy.info
W4DEX-14D220321732022-12-06 12:15:5432.5597-79.17481454323312Clb=1.6m/s Type=DFM17 ser=[BC]22032173 Details on http://radiosondy.info
W4DEX-14D220321732022-12-06 12:15:5232.5601-79.1765993523233Clb=4.1m/s Type=DFM17 ser=[BC]22032173 Details on http://radiosondy.info
W4DEX-14D220321732022-12-06 12:15:5032.5602-79.1781133323137Clb=1.1m/s Type=DFM17 ser=[BC]22032173 Details on http://radiosondy.info
W4DEX-14D220321732022-12-06 12:15:4932.5605-79.17931043923054Clb=6.9m/s Type=DFM17 ser=[BC]22032173 Details on http://radiosondy.info
W4DEX-14D220321732022-12-06 12:15:4732.5606-79.181884322966Clb=6.7m/s Type=DFM17 ser=[BC]22032173 Details on http://radiosondy.info
W4DEX-14D220321732022-12-06 12:15:4632.5607-79.1828984122874Clb=7.3m/s Type=DFM17 ser=[BC]22032173 Details on http://radiosondy.info
W4DEX-14D220321732022-12-06 12:15:4232.5607-79.1847893922783Clb=7.7m/s Type=DFM17 ser=[BC]22032173 Details on http://radiosondy.info
W4DEX-14D220321732022-12-06 12:15:2832.5609-79.18631134422685Clb=3.8m/s Type=DFM17 ser=[BC]22032173 Details on http://radiosondy.info
W4DEX-14D220321732022-12-06 12:15:1932.5616-79.18811174422594Clb=8.7m/s Type=DFM17 ser=[BC]22032173 Details on http://radiosondy.info
W4DEX-14D220321732022-12-06 12:15:0132.562-79.18991014422500Clb=6.1m/s Type=DFM17 ser=[BC]22032173 Details on http://radiosondy.info
W4DEX-14D220321732022-12-06 12:14:3832.5623-79.19181124122411Clb=8.1m/s Type=DFM17 ser=[BC]22032173 Details on http://radiosondy.info
W4DEX-14D220321732022-12-06 12:14:0332.5626-79.1935983922327Clb=4.9m/s Type=DFM17 ser=[BC]22032173 Details on http://radiosondy.info
W4DEX-14D220321732022-12-06 12:13:3332.5628-79.19511223722246Clb=3.6m/s Type=DFM17 ser=[BC]22032173 Details on http://radiosondy.info
W4DEX-14D220321732022-12-06 12:12:5932.5631-79.19661134322165Clb=7.9m/s Type=DFM17 ser=[BC]22032173 Details on http://radiosondy.info
W4DEX-14D220321732022-12-06 12:12:2432.5634-79.1984935022090Clb=8.9m/s Type=DFM17 ser=[BC]22032173 Details on http://radiosondy.info
W4DEX-14D220321732022-12-06 12:11:5032.5637-79.20071034622021Clb=3.5m/s Type=DFM17 ser=[BC]22032173 Details on http://radiosondy.info
W4DEX-14D220321732022-12-06 12:11:1532.5638-79.20261074321948Clb=2.8m/s Type=DFM17 ser=[BC]22032173 Details on http://radiosondy.info
W4DEX-14D220321732022-12-06 12:10:3832.5634-79.2045944621876Clb=2.0m/s Type=DFM17 ser=[BC]22032173 Details on http://radiosondy.info
W4DEX-14D220321732022-12-06 12:09:5932.5921-79.298111111718456Clb=4.5m/s Type=DFM17 ser=[BC]22032173 Details on http://radiosondy.info
W4DEX-14D220321732022-12-06 12:09:1732.5937-79.302911011918379Clb=4.3m/s Type=DFM17 ser=[BC]22032173 Details on http://radiosondy.info
W4DEX-14D220321732022-12-06 12:08:4132.5951-79.307911211118304Clb=3.6m/s Type=DFM17 ser=[BC]22032173 Details on http://radiosondy.info
W4DEX-14D220321732022-12-06 12:08:0032.5962-79.312710611918233Clb=3.8m/s Type=DFM17 ser=[BC]22032173 Details on http://radiosondy.info
W4DEX-14D220321732022-12-06 12:07:1932.597-79.31789910918159Clb=5.6m/s Type=DFM17 ser=[BC]22032173 Details on http://radiosondy.info
W4DEX-14D220321732022-12-06 12:06:4932.5976-79.32259910018092Clb=5.1m/s Type=DFM17 ser=[BC]22032173 Details on http://radiosondy.info
W4DEX-14D220321732022-12-06 12:06:1432.5983-79.3268969318021Clb=3.7m/s Type=DFM17 ser=[BC]22032173 Details on http://radiosondy.info
W4DEX-14D220321732022-12-06 12:05:3832.599-79.33081028917948Clb=5.7m/s Type=DFM17 ser=[BC]22032173 Details on http://radiosondy.info
W4DEX-14D220321732022-12-06 12:04:5932.5998-79.33471028317878Clb=5.5m/s Type=DFM17 ser=[BC]22032173 Details on http://radiosondy.info
W4DEX-14D220321732022-12-06 12:04:2132.6003-79.33841058017805Clb=6.1m/s Type=DFM17 ser=[BC]22032173 Details on http://radiosondy.info
W4DEX-14D220321732022-12-06 12:03:4432.6008-79.3417977217730Clb=6.2m/s Type=DFM17 ser=[BC]22032173 Details on http://radiosondy.info
W4DEX-14D220321732022-12-06 12:03:0932.6011-79.345966517655Clb=4.1m/s Type=DFM17 ser=[BC]22032173 Details on http://radiosondy.info
W4DEX-14D220321732022-12-06 12:02:3532.6012-79.34781066717579Clb=4.9m/s Type=DFM17 ser=[BC]22032173 Details on http://radiosondy.info
W4DEX-14D220321732022-12-06 12:02:0432.6016-79.3507977617503Clb=3.6m/s Type=DFM17 ser=[BC]22032173 Details on http://radiosondy.info
W4DEX-14D220321732022-12-06 12:01:3132.6022-79.3541107817427Clb=4.7m/s Type=DFM17 ser=[BC]22032173 Details on http://radiosondy.info
W4DEX-14D220321732022-12-06 12:01:0232.6029-79.35731058117354Clb=5.3m/s Type=DFM17 ser=[BC]22032173 Details on http://radiosondy.info
W4DEX-14D220321732022-12-06 12:00:2932.6041-79.36071118517278Clb=3.8m/s Type=DFM17 ser=[BC]22032173 Details on http://radiosondy.info
W4DEX-14D220321732022-12-06 11:59:4832.6053-79.36421108917202Clb=5.7m/s Type=DFM17 ser=[BC]22032173 Details on http://radiosondy.info
W4DEX-14D220321732022-12-06 11:59:1232.6066-79.36781068717130Clb=3.6m/s Type=DFM17 ser=[BC]22032173 Details on http://radiosondy.info
W4DEX-14D220321732022-12-06 11:58:3032.6078-79.37141118717058Clb=5.6m/s Type=DFM17 ser=[BC]22032173 Details on http://radiosondy.info
W4DEX-14D220321732022-12-06 11:57:4732.609-79.3751158716984Clb=4.8m/s Type=DFM17 ser=[BC]22032173 Details on http://radiosondy.info
W4DEX-14D220321732022-12-06 11:57:1332.6105-79.37841228916907Clb=3.3m/s Type=DFM17 ser=[BC]22032173 Details on http://radiosondy.info
W4DEX-14D220321732022-12-06 11:56:4232.6124-79.38171369616835Clb=5.1m/s Type=DFM17 ser=[BC]22032173 Details on http://radiosondy.info
W4DEX-14D220321732022-12-06 11:56:1132.6145-79.38511279816766Clb=4.5m/s Type=DFM17 ser=[BC]22032173 Details on http://radiosondy.info
W4DEX-14D220321732022-12-06 11:55:4132.6168-79.38851229616692Clb=5.9m/s Type=DFM17 ser=[BC]22032173 Details on http://radiosondy.info
W4DEX-14D220321732022-12-06 11:55:0632.6189-79.39212510216623Clb=5.7m/s Type=DFM17 ser=[BC]22032173 Details on http://radiosondy.info
W4DEX-14D220321732022-12-06 11:54:2832.6211-79.395612310716553Clb=2.9m/s Type=DFM17 ser=[BC]22032173 Details on http://radiosondy.info
W4DEX-14D220321732022-12-06 11:53:5432.6234-79.399511910616486Clb=4.6m/s Type=DFM17 ser=[BC]22032173 Details on http://radiosondy.info
W4DEX-14D220321732022-12-06 11:53:1332.6255-79.403512111316418Clb=5.2m/s Type=DFM17 ser=[BC]22032173 Details on http://radiosondy.info
W4DEX-14D220321732022-12-06 11:52:3632.6276-79.407812210916346Clb=3.7m/s Type=DFM17 ser=[BC]22032173 Details on http://radiosondy.info
W4DEX-14D220321732022-12-06 11:51:5932.6297-79.411911910916278Clb=4.7m/s Type=DFM17 ser=[BC]22032173 Details on http://radiosondy.info
W4DEX-14D220321732022-12-06 11:51:4632.6316-79.416112111116205Clb=5.7m/s Type=DFM17 ser=[BC]22032173 Details on http://radiosondy.info
W4DEX-14D220321732022-12-06 11:51:4032.6334-79.420512010616128Clb=6.3m/s Type=DFM17 ser=[BC]22032173 Details on http://radiosondy.info
W4DEX-14D220321732022-12-06 11:51:2032.6352-79.42461249116048Clb=4.1m/s Type=DFM17 ser=[BC]22032173 Details on http://radiosondy.info
W4DEX-14D220321732022-12-06 11:50:5932.6367-79.4282908715953Clb=5.6m/s Type=DFM17 ser=[BC]22032173 Details on http://radiosondy.info
W4DEX-14D220321732022-12-06 11:50:4732.6376-79.43181127215854Clb=4.4m/s Type=DFM17 ser=[BC]22032173 Details on http://radiosondy.info
W4DEX-14D220321732022-12-06 11:50:4132.6383-79.43491106915773Clb=3.7m/s Type=DFM17 ser=[BC]22032173 Details on http://radiosondy.info
W4DEX-14D220321732022-12-06 11:50:2132.6388-79.43781146915698Clb=4.4m/s Type=DFM17 ser=[BC]22032173 Details on http://radiosondy.info
W4DEX-14D220321732022-12-06 11:50:0432.6395-79.44081147015624Clb=3.5m/s Type=DFM17 ser=[BC]22032173 Details on http://radiosondy.info
W4DEX-14D220321732022-12-06 11:50:0032.6402-79.44371097215551Clb=3.5m/s Type=DFM17 ser=[BC]22032173 Details on http://radiosondy.info
W4DEX-14D220321732022-12-06 11:49:5532.6411-79.44681067615478Clb=4.0m/s Type=DFM17 ser=[BC]22032173 Details on http://radiosondy.info
W4DEX-14D220321732022-12-06 11:49:5132.6421-79.44991137615409Clb=4.0m/s Type=DFM17 ser=[BC]22032173 Details on http://radiosondy.info
W4DEX-14D220321732022-12-06 11:49:4632.6432-79.4531138315334Clb=4.6m/s Type=DFM17 ser=[BC]22032173 Details on http://radiosondy.info
W4DEX-14D220321732022-12-06 11:49:3732.6443-79.45651048715263Clb=3.9m/s Type=DFM17 ser=[BC]22032173 Details on http://radiosondy.info
W4DEX-14D220321732022-12-06 11:49:2032.6456-79.461199315179Clb=7.1m/s Type=DFM17 ser=[BC]22032173 Details on http://radiosondy.info
W4DEX-14D220321732022-12-06 11:49:0232.647-79.463712210215088Clb=5.3m/s Type=DFM17 ser=[BC]22032173 Details on http://radiosondy.info
W4DEX-14D220321732022-12-06 11:48:5732.649-79.467512810715007Clb=5.0m/s Type=DFM17 ser=[BC]22032173 Details on http://radiosondy.info
W4DEX-14D220321732022-12-06 11:48:5032.6514-79.471312411514934Clb=3.3m/s Type=DFM17 ser=[BC]22032173 Details on http://radiosondy.info
W4DEX-14D220321732022-12-06 11:48:4932.6538-79.475512012214864Clb=3.3m/s Type=DFM17 ser=[BC]22032173 Details on http://radiosondy.info
W4DEX-14D220321732022-12-06 11:48:4832.6563-79.480112513014796Clb=5.5m/s Type=DFM17 ser=[BC]22032173 Details on http://radiosondy.info
W4DEX-14D220321732022-12-06 11:48:4732.6589-79.484911913114722Clb=5.2m/s Type=DFM17 ser=[BC]22032173 Details on http://radiosondy.info
W4DEX-14D220321732022-12-06 11:48:4532.6615-79.489812313014648Clb=4.9m/s Type=DFM17 ser=[BC]22032173 Details on http://radiosondy.info
W4DEX-14D220321732022-12-06 11:48:4432.6638-79.494911412614574Clb=5.6m/s Type=DFM17 ser=[BC]22032173 Details on http://radiosondy.info
W4DEX-14D220321732022-12-06 11:48:4332.6658-79.499811512014494Clb=3.9m/s Type=DFM17 ser=[BC]22032173 Details on http://radiosondy.info
W4DEX-14D220321732022-12-06 11:48:4232.6678-79.504611911314416Clb=4.9m/s Type=DFM17 ser=[BC]22032173 Details on http://radiosondy.info
W4DEX-14D220321732022-12-06 11:48:4132.6696-79.509211911114340Clb=3.8m/s Type=DFM17 ser=[BC]22032173 Details on http://radiosondy.info
W4DEX-14D220321732022-12-06 11:48:4032.6715-79.513611710714264Clb=5.8m/s Type=DFM17 ser=[BC]22032173 Details on http://radiosondy.info
W4DEX-14D220321732022-12-06 11:48:3932.6735-79.517812010714188Clb=4.4m/s Type=DFM17 ser=[BC]22032173 Details on http://radiosondy.info
W4DEX-14D220321732022-12-06 11:48:3832.6756-79.521812311514112Clb=5.6m/s Type=DFM17 ser=[BC]22032173 Details on http://radiosondy.info
W4DEX-14D220321732022-12-06 11:48:3732.6779-79.526112711514037Clb=4.0m/s Type=DFM17 ser=[BC]22032173 Details on http://radiosondy.info
W4DEX-14D220321732022-12-06 11:48:3532.6804-79.530212111913966Clb=3.5m/s Type=DFM17 ser=[BC]22032173 Details on http://radiosondy.info
W4DEX-14D220321732022-12-06 11:48:2232.683-79.534512312213894Clb=4.9m/s Type=DFM17 ser=[BC]22032173 Details on http://radiosondy.info
W4DEX-14D220321732022-12-06 11:47:4932.6856-79.53912712413824Clb=4.7m/s Type=DFM17 ser=[BC]22032173 Details on http://radiosondy.info
W4DEX-14D220321732022-12-06 11:47:1732.6883-79.543512612413757Clb=6.0m/s Type=DFM17 ser=[BC]22032173 Details on http://radiosondy.info
W4DEX-14D220321732022-12-06 11:46:4532.6909-79.548112412813690Clb=2.9m/s Type=DFM17 ser=[BC]22032173 Details on http://radiosondy.info
W4DEX-14D220321732022-12-06 11:46:1832.6936-79.552712013013623Clb=4.5m/s Type=DFM17 ser=[BC]22032173 Details on http://radiosondy.info
W4DEX-14D220321732022-12-06 11:45:4932.6962-79.557712213513560Clb=5.1m/s Type=DFM17 ser=[BC]22032173 Details on http://radiosondy.info
W4DEX-14D220321732022-12-06 11:45:2032.699-79.562812314113498Clb=4.6m/s Type=DFM17 ser=[BC]22032173 Details on http://radiosondy.info
W4DEX-14D220321732022-12-06 11:44:5132.7019-79.567911913713438Clb=3.0m/s Type=DFM17 ser=[BC]22032173 Details on http://radiosondy.info
W4DEX-14D220321732022-12-06 11:44:2032.7045-79.573112113313375Clb=3.8m/s Type=DFM17 ser=[BC]22032173 Details on http://radiosondy.info
W4DEX-14D220321732022-12-06 11:43:5132.7071-79.578112013313310Clb=4.5m/s Type=DFM17 ser=[BC]22032173 Details on http://radiosondy.info
W4DEX-14D220321732022-12-06 11:43:2232.7097-79.583311913513247Clb=5.4m/s Type=DFM17 ser=[BC]22032173 Details on http://radiosondy.info
W4DEX-14D220321732022-12-06 11:42:5132.7122-79.588511913713184Clb=4.3m/s Type=DFM17 ser=[BC]22032173 Details on http://radiosondy.info
W4DEX-14D220321732022-12-06 11:42:1832.7147-79.593812013513120Clb=3.5m/s Type=DFM17 ser=[BC]22032173 Details on http://radiosondy.info
W4DEX-14D220321732022-12-06 11:41:4832.7172-79.59912013513050Clb=3.4m/s Type=DFM17 ser=[BC]22032173 Details on http://radiosondy.info
W4DEX-14D220321732022-12-06 11:41:2032.7197-79.604312313312977Clb=5.0m/s Type=DFM17 ser=[BC]22032173 Details on http://radiosondy.info
W4DEX-14D220321732022-12-06 11:40:5032.7221-79.609412213312902Clb=6.2m/s Type=DFM17 ser=[BC]22032173 Details on http://radiosondy.info
W4DEX-14D220321732022-12-06 11:40:2532.7245-79.614611613012829Clb=4.5m/s Type=DFM17 ser=[BC]22032173 Details on http://radiosondy.info
W4DEX-14D220321732022-12-06 11:39:5932.727-79.619611313112755Clb=4.8m/s Type=DFM17 ser=[BC]22032173 Details on http://radiosondy.info
W4DEX-14D220321732022-12-06 11:39:4432.7294-79.624611312812680Clb=5.0m/s Type=DFM17 ser=[BC]22032173 Details on http://radiosondy.info
W4DEX-14D220321732022-12-06 11:39:3132.7316-79.629712012812605Clb=5.1m/s Type=DFM17 ser=[BC]22032173 Details on http://radiosondy.info
W4DEX-14D220321732022-12-06 11:39:1632.734-79.634711612812529Clb=5.4m/s Type=DFM17 ser=[BC]22032173 Details on http://radiosondy.info
W4DEX-14D220321732022-12-06 11:38:5932.7364-79.639612212812457Clb=5.0m/s Type=DFM17 ser=[BC]22032173 Details on http://radiosondy.info
W4DEX-14D220321732022-12-06 11:38:4432.7389-79.644411913012381Clb=6.6m/s Type=DFM17 ser=[BC]22032173 Details on http://radiosondy.info
W4DEX-14D220321732022-12-06 11:38:2932.7414-79.649411813712306Clb=4.9m/s Type=DFM17 ser=[BC]22032173 Details on http://radiosondy.info
W4DEX-14D220321732022-12-06 11:38:1632.744-79.654612013512223Clb=4.6m/s Type=DFM17 ser=[BC]22032173 Details on http://radiosondy.info
W4DEX-14D220321732022-12-06 11:37:5932.7466-79.659812313512150Clb=5.0m/s Type=DFM17 ser=[BC]22032173 Details on http://radiosondy.info
W4DEX-14D220321732022-12-06 11:37:4432.7493-79.664812313312077Clb=4.6m/s Type=DFM17 ser=[BC]22032173 Details on http://radiosondy.info
W4DEX-14D220321732022-12-06 11:37:3132.7519-79.669912713512006Clb=4.8m/s Type=DFM17 ser=[BC]22032173 Details on http://radiosondy.info
W4DEX-14D220321732022-12-06 11:37:1532.7546-79.674912213311933Clb=5.5m/s Type=DFM17 ser=[BC]22032173 Details on http://radiosondy.info
W4DEX-14D220321732022-12-06 11:36:5932.757-79.680211513111855Clb=4.5m/s Type=DFM17 ser=[BC]22032173 Details on http://radiosondy.info
W4DEX-14D220321732022-12-06 11:36:4432.7593-79.685311013111781Clb=3.6m/s Type=DFM17 ser=[BC]22032173 Details on http://radiosondy.info
W4DEX-14D220321732022-12-06 11:36:3032.7615-79.690511112811706Clb=4.8m/s Type=DFM17 ser=[BC]22032173 Details on http://radiosondy.info
W4DEX-14D220321732022-12-06 11:36:2932.7636-79.695611412811634Clb=5.4m/s Type=DFM17 ser=[BC]22032173 Details on http://radiosondy.info
W4DEX-14D220321732022-12-06 11:36:2732.7677-79.705611412611489Clb=4.4m/s Type=DFM17 ser=[BC]22032173 Details on http://radiosondy.info
W4DEX-14D220321732022-12-06 11:36:2632.7697-79.710711413011415Clb=6.0m/s Type=DFM17 ser=[BC]22032173 Details on http://radiosondy.info
W4DEX-14D220321732022-12-06 11:36:2432.7718-79.715911513111345Clb=5.9m/s Type=DFM17 ser=[BC]22032173 Details on http://radiosondy.info
W4DEX-14D220321732022-12-06 11:36:2332.774-79.721111713111272Clb=5.3m/s Type=DFM17 ser=[BC]22032173 Details on http://radiosondy.info
W4DEX-14D220321732022-12-06 11:36:2032.776-79.726410913111200Clb=4.8m/s Type=DFM17 ser=[BC]22032173 Details on http://radiosondy.info
W4DEX-14D220321732022-12-06 11:36:1632.778-79.731711512811126Clb=3.6m/s Type=DFM17 ser=[BC]22032173 Details on http://radiosondy.info
W4DEX-14D220321732022-12-06 11:36:0332.7801-79.736911013011052Clb=5.1m/s Type=DFM17 ser=[BC]22032173 Details on http://radiosondy.info
W4DEX-14D220321732022-12-06 11:35:3832.7822-79.74212012810981Clb=4.5m/s Type=DFM17 ser=[BC]22032173 Details on http://radiosondy.info
W4DEX-14D220321732022-12-06 11:35:1232.7842-79.747211512810906Clb=5.8m/s Type=DFM17 ser=[BC]22032173 Details on http://radiosondy.info
W4DEX-14D220321732022-12-06 11:34:4532.7862-79.752311312810835Clb=3.9m/s Type=DFM17 ser=[BC]22032173 Details on http://radiosondy.info
W4DEX-14D220321732022-12-06 11:34:1632.7883-79.757511512610763Clb=3.6m/s Type=DFM17 ser=[BC]22032173 Details on http://radiosondy.info
W4DEX-14D220321732022-12-06 11:33:4832.7903-79.762511812410691Clb=2.5m/s Type=DFM17 ser=[BC]22032173 Details on http://radiosondy.info
W4DEX-14D220321732022-12-06 11:33:2132.7924-79.767411712210619Clb=5.0m/s Type=DFM17 ser=[BC]22032173 Details on http://radiosondy.info
W4DEX-14D220321732022-12-06 11:32:5432.7947-79.772212212210549Clb=3.9m/s Type=DFM17 ser=[BC]22032173 Details on http://radiosondy.info
W4DEX-14D220321732022-12-06 11:32:2332.7971-79.776812012010479Clb=5.0m/s Type=DFM17 ser=[BC]22032173 Details on http://radiosondy.info
W4DEX-14D220321732022-12-06 11:31:5932.7994-79.781412112010412Clb=3.2m/s Type=DFM17 ser=[BC]22032173 Details on http://radiosondy.info
W4DEX-14D220321732022-12-06 11:31:4432.8018-79.78612811910347Clb=4.7m/s Type=DFM17 ser=[BC]22032173 Details on http://radiosondy.info
W4DEX-14D220321732022-12-06 11:31:2932.8041-79.790411911310282Clb=5.1m/s Type=DFM17 ser=[BC]22032173 Details on http://radiosondy.info
W4DEX-14D220321732022-12-06 11:31:1432.8064-79.794612510910213Clb=5.1m/s Type=DFM17 ser=[BC]22032173 Details on http://radiosondy.info
W4DEX-14D220321732022-12-06 11:31:1332.8088-79.798512110910133Clb=4.5m/s Type=DFM17 ser=[BC]22032173 Details on http://radiosondy.info
W4DEX-14D220321732022-12-06 11:31:1232.8112-79.802512810910067Clb=4.3m/s Type=DFM17 ser=[BC]22032173 Details on http://radiosondy.info
W4DEX-14D220321732022-12-06 11:31:1132.8157-79.81031211069935Clb=4.7m/s Type=DFM17 ser=[BC]22032173 Details on http://radiosondy.info
W4DEX-14D220321732022-12-06 11:31:0632.818-79.81411251029872Clb=4.2m/s Type=DFM17 ser=[BC]22032173 Details on http://radiosondy.info
W4DEX-14D220321732022-12-06 11:30:4832.8202-79.81791321069799Clb=3.5m/s Type=DFM17 ser=[BC]22032173 Details on http://radiosondy.info
W4DEX-14D220321732022-12-06 11:30:2432.8225-79.82161231049730Clb=3.2m/s Type=DFM17 ser=[BC]22032173 Details on http://radiosondy.info
W4DEX-14D220321732022-12-06 11:30:0032.8248-79.8254120949664Clb=5.4m/s Type=DFM17 ser=[BC]22032173 Details on http://radiosondy.info
W4DEX-14D220321732022-12-06 11:29:3732.8267-79.8289119919587Clb=3.5m/s Type=DFM17 ser=[BC]22032173 Details on http://radiosondy.info
W4DEX-14D220321732022-12-06 11:29:1032.8284-79.8323132899504Clb=5.3m/s Type=DFM17 ser=[BC]22032173 Details on http://radiosondy.info
W4DEX-14D220321732022-12-06 11:28:4432.8302-79.8357114819415Clb=6.5m/s Type=DFM17 ser=[BC]22032173 Details on http://radiosondy.info
W4DEX-14D220321732022-12-06 11:28:2032.8318-79.8386126769324Clb=5.8m/s Type=DFM17 ser=[BC]22032173 Details on http://radiosondy.info
W4DEX-14D220321732022-12-06 11:28:0032.8334-79.8414137729237Clb=8.2m/s Type=DFM17 ser=[BC]22032173 Details on http://radiosondy.info
W4DEX-14D220321732022-12-06 11:27:4432.8349-79.8439114729144Clb=6.8m/s Type=DFM17 ser=[BC]22032173 Details on http://radiosondy.info
W4DEX-14D220321732022-12-06 11:27:3032.8361-79.8467130709058Clb=7.7m/s Type=DFM17 ser=[BC]22032173 Details on http://radiosondy.info
W4DEX-14D220321732022-12-06 11:27:1532.8376-79.8492117708977Clb=4.4m/s Type=DFM17 ser=[BC]22032173 Details on http://radiosondy.info
W4DEX-14D220321732022-12-06 11:26:5932.839-79.8518127678907Clb=3.6m/s Type=DFM17 ser=[BC]22032173 Details on http://radiosondy.info
W4DEX-14D220321732022-12-06 11:26:4432.8401-79.8545120708831Clb=6.1m/s Type=DFM17 ser=[BC]22032173 Details on http://radiosondy.info
W4DEX-14D220321732022-12-06 11:26:2932.8411-79.8572120618747Clb=5.5m/s Type=DFM17 ser=[BC]22032173 Details on http://radiosondy.info
W4DEX-14D220321732022-12-06 11:26:1932.8428-79.8622106678600Clb=6.0m/s Type=DFM17 ser=[BC]22032173 Details on http://radiosondy.info
W4DEX-14D220321732022-12-06 11:26:1832.8436-79.8649112548522Clb=7.8m/s Type=DFM17 ser=[BC]22032173 Details on http://radiosondy.info
W4DEX-14D220321732022-12-06 11:26:1032.8443-79.8672113598448Clb=3.9m/s Type=DFM17 ser=[BC]22032173 Details on http://radiosondy.info
W4DEX-14D220321732022-12-06 11:25:5332.845-79.8696113578372Clb=4.4m/s Type=DFM17 ser=[BC]22032173 Details on http://radiosondy.info
W4DEX-14D220321732022-12-06 11:25:2732.8457-79.872124548313Clb=4.8m/s Type=DFM17 ser=[BC]22032173 Details on http://radiosondy.info
W4DEX-14D220321732022-12-06 11:25:0432.8464-79.874295548253Clb=6.7m/s Type=DFM17 ser=[BC]22032173 Details on http://radiosondy.info
W4DEX-14D220321732022-12-06 11:24:4232.8472-79.8764111568174Clb=3.8m/s Type=DFM17 ser=[BC]22032173 Details on http://radiosondy.info
W4DEX-14D220321732022-12-06 11:24:1832.8479-79.8787105618102Clb=5.0m/s Type=DFM17 ser=[BC]22032173 Details on http://radiosondy.info
W4DEX-14D220321732022-12-06 11:23:5932.8486-79.8813102638027Clb=5.0m/s Type=DFM17 ser=[BC]22032173 Details on http://radiosondy.info
W4DEX-14D220321732022-12-06 11:23:4432.8495-79.8838105637952Clb=4.7m/s Type=DFM17 ser=[BC]22032173 Details on http://radiosondy.info
W4DEX-14D220321732022-12-06 11:23:2932.8501-79.8864100707882Clb=6.8m/s Type=DFM17 ser=[BC]22032173 Details on http://radiosondy.info
W4DEX-14D220321732022-12-06 11:23:1432.8512-79.8892110697795Clb=4.9m/s Type=DFM17 ser=[BC]22032173 Details on http://radiosondy.info
W4DEX-14D220321732022-12-06 11:22:5932.8521-79.8921101727726Clb=4.6m/s Type=DFM17 ser=[BC]22032173 Details on http://radiosondy.info
W4DEX-14D220321732022-12-06 11:22:4432.8532-79.895115727656Clb=4.0m/s Type=DFM17 ser=[BC]22032173 Details on http://radiosondy.info
W4DEX-14D220321732022-12-06 11:22:2932.8541-79.898119637563Clb=6.1m/s Type=DFM17 ser=[BC]22032173 Details on http://radiosondy.info
W4DEX-14D220321732022-12-06 11:22:1432.8549-79.9006108747476Clb=7.2m/s Type=DFM17 ser=[BC]22032173 Details on http://radiosondy.info
W4DEX-14D220321732022-12-06 11:21:5932.8559-79.9035118697396Clb=3.1m/s Type=DFM17 ser=[BC]22032173 Details on http://radiosondy.info
W4DEX-14D220321732022-12-06 11:21:5132.8569-79.906496637317Clb=4.7m/s Type=DFM17 ser=[BC]22032173 Details on http://radiosondy.info
W4DEX-14D220321732022-12-06 11:21:5032.8577-79.909126637233Clb=5.2m/s Type=DFM17 ser=[BC]22032173 Details on http://radiosondy.info
W4DEX-14D220321732022-12-06 11:21:3732.8588-79.9114125597154Clb=5.0m/s Type=DFM17 ser=[BC]22032173 Details on http://radiosondy.info
W4DEX-14D220321732022-12-06 11:21:1532.8598-79.913696617071Clb=5.7m/s Type=DFM17 ser=[BC]22032173 Details on http://radiosondy.info
W4DEX-14D220321732022-12-06 11:20:5632.8606-79.9162107566982Clb=4.9m/s Type=DFM17 ser=[BC]22032173 Details on http://radiosondy.info
W4DEX-14D220321732022-12-06 11:20:3632.8614-79.9184117616902Clb=4.7m/s Type=DFM17 ser=[BC]22032173 Details on http://radiosondy.info
W4DEX-14D220321732022-12-06 11:20:1732.8624-79.9208113566824Clb=5.0m/s Type=DFM17 ser=[BC]22032173 Details on http://radiosondy.info
W4DEX-14D220321732022-12-06 11:19:5932.8632-79.9231124676745Clb=3.5m/s Type=DFM17 ser=[BC]22032173 Details on http://radiosondy.info
W4DEX-14D220321732022-12-06 11:19:4432.8643-79.9257103566669Clb=4.4m/s Type=DFM17 ser=[BC]22032173 Details on http://radiosondy.info
W4DEX-14D220321732022-12-06 11:19:2932.8653-79.9277124566577Clb=5.8m/s Type=DFM17 ser=[BC]22032173 Details on http://radiosondy.info
W4DEX-14D220321732022-12-06 11:19:1432.8663-79.9298131546493Clb=6.5m/s Type=DFM17 ser=[BC]22032173 Details on http://radiosondy.info
W4DEX-14D220321732022-12-06 11:18:5932.8672-79.9318121526392Clb=5.1m/s Type=DFM17 ser=[BC]22032173 Details on http://radiosondy.info
W4DEX-14D220321732022-12-06 11:18:4432.868-79.9339137596277Clb=8.7m/s Type=DFM17 ser=[BC]22032173 Details on http://radiosondy.info
W4DEX-14D220321732022-12-06 11:18:2932.8689-79.9363129566147Clb=8.7m/s Type=DFM17 ser=[BC]22032173 Details on http://radiosondy.info
W4DEX-14D220321732022-12-06 11:18:1432.87-79.9384124596045Clb=7.1m/s Type=DFM17 ser=[BC]22032173 Details on http://radiosondy.info
W4DEX-14D220321732022-12-06 11:17:5932.8708-79.9408105615954Clb=5.7m/s Type=DFM17 ser=[BC]22032173 Details on http://radiosondy.info
W4DEX-14D220321732022-12-06 11:17:4432.8717-79.9433119545871Clb=6.6m/s Type=DFM17 ser=[BC]22032173 Details on http://radiosondy.info
W4DEX-14D220321732022-12-06 11:17:3332.8724-79.9455119595784Clb=4.9m/s Type=DFM17 ser=[BC]22032173 Details on http://radiosondy.info
W4DEX-14D220321732022-12-06 11:17:2932.873-79.947996595695Clb=5.7m/s Type=DFM17 ser=[BC]22032173 Details on http://radiosondy.info
W4DEX-14D220321732022-12-06 11:17:1732.874-79.9503110615600Clb=6.4m/s Type=DFM17 ser=[BC]22032173 Details on http://radiosondy.info
W4DEX-14D220321732022-12-06 11:16:5732.8749-79.9527104575504Clb=3.2m/s Type=DFM17 ser=[BC]22032173 Details on http://radiosondy.info
W4DEX-14D220321732022-12-06 11:16:3632.8756-79.9551115595411Clb=5.6m/s Type=DFM17 ser=[BC]22032173 Details on http://radiosondy.info
W4DEX-14D220321732022-12-06 11:16:1632.8767-79.9574119525322Clb=7.9m/s Type=DFM17 ser=[BC]22032173 Details on http://radiosondy.info
W4DEX-14D220321732022-12-06 11:15:5932.8777-79.959396595244Clb=4.6m/s Type=DFM17 ser=[BC]22032173 Details on http://radiosondy.info
W4DEX-14D220321732022-12-06 11:15:4432.8789-79.9614111615163Clb=8.1m/s Type=DFM17 ser=[BC]22032173 Details on http://radiosondy.info
W4DEX-14D220321732022-12-06 11:15:2932.88-79.9637115565072Clb=8.8m/s Type=DFM17 ser=[BC]22032173 Details on http://radiosondy.info
W4DEX-14D220321732022-12-06 11:15:1432.8812-79.9657109564977Clb=6.1m/s Type=DFM17 ser=[BC]22032173 Details on http://radiosondy.info
W4DEX-14D220321732022-12-06 11:14:5932.8821-79.9679130614889Clb=7.1m/s Type=DFM17 ser=[BC]22032173 Details on http://radiosondy.info
W4DEX-14D220321732022-12-06 11:14:4432.8834-79.9701122674804Clb=5.6m/s Type=DFM17 ser=[BC]22032173 Details on http://radiosondy.info
W4DEX-14D220321732022-12-06 11:14:2932.8847-79.9726125674727Clb=8.2m/s Type=DFM17 ser=[BC]22032173 Details on http://radiosondy.info
W4DEX-14D220321732022-12-06 11:14:1432.8862-79.9749128594649Clb=5.4m/s Type=DFM17 ser=[BC]22032173 Details on http://radiosondy.info
W4DEX-14D220321732022-12-06 11:13:5932.8877-79.9768125544561Clb=5.0m/s Type=DFM17 ser=[BC]22032173 Details on http://radiosondy.info
W4DEX-14D220321732022-12-06 11:13:4432.8888-79.9788136544489Clb=4.9m/s Type=DFM17 ser=[BC]22032173 Details on http://radiosondy.info
W4DEX-14D220321732022-12-06 11:13:2932.89-79.9807129574417Clb=5.6m/s Type=DFM17 ser=[BC]22032173 Details on http://radiosondy.info
W4DEX-14D220321732022-12-06 11:13:1432.8913-79.9826120594330Clb=5.1m/s Type=DFM17 ser=[BC]22032173 Details on http://radiosondy.info
W4DEX-14D220321732022-12-06 11:13:0432.8924-79.9849109674246Clb=5.1m/s Type=DFM17 ser=[BC]22032173 Details on http://radiosondy.info
W4DEX-14D220321732022-12-06 11:12:5332.8937-79.9874134614161Clb=6.8m/s Type=DFM17 ser=[BC]22032173 Details on http://radiosondy.info
W4DEX-14D220321732022-12-06 11:12:3232.8947-79.9899112614065Clb=5.6m/s Type=DFM17 ser=[BC]22032173 Details on http://radiosondy.info
W4DEX-14D220321732022-12-06 11:12:1432.8956-79.9922105563970Clb=5.9m/s Type=DFM Details on http://radiosondy.info
W4DEX-14D220321732022-12-06 11:11:5932.8965-79.9945110573878Clb=5.4m/s Type=DFM Details on http://radiosondy.info
W4DEX-14D220321732022-12-06 11:11:4432.8972-79.996889613777Clb=5.5m/s Type=DFM Details on http://radiosondy.info